Time;durP1;ratioP1;P1;durP2;ratioP2;P2;SDS_P1;SDS_P2;PMS_P1;PMS_P2;Temp;Humidity;BMP_temperature;BMP_pressure;BME280_temperature;BME280_humidity;BME280_pressure;Samples;Min_cycle;Max_cycle;Signal;HPM_P1;HPM_P2
2022/01/13 00:00:52;;;;;;;15.23;1.33;;;;;;;;;;5089239;28;20553;-60
2022/01/13 00:03:19;;;;;;;10.35;1.40;;;21.90;50.80;;;;;;5092434;28;20028;-60
2022/01/13 00:05:46;;;;;;;26.27;2.63;;;21.80;23.30;;;;;;5077770;28;20087;-59
2022/01/13 00:08:12;;;;;;;25.75;3.00;;;21.70;24.90;;;;;;5090819;28;20072;-61
2022/01/13 00:10:38;;;;;;;24.23;2.13;;;21.60;26.00;;;;;;5087780;28;20475;-60
2022/01/13 00:13:07;;;;;;;38.55;2.85;;;21.40;25.70;;;;;;5089445;28;20541;-61
2022/01/13 00:15:50;;;;;;;37.17;2.70;;;21.30;26.00;;;;;;5089971;28;20080;-61
2022/01/13 00:18:30;;;;;;;16.10;2.10;;;21.10;27.00;;;;;;5090888;28;20065;-60
2022/01/13 00:21:13;;;;;;;21.63;2.20;;;21.00;27.60;;;;;;5088516;28;20105;-61
2022/01/13 00:26:31;;;;;;;18.38;2.22;;;20.60;28.10;;;;;;5089721;28;20521;-62
2022/01/13 00:29:01;;;;;;;25.13;2.90;;;20.50;28.30;;;;;;5086696;28;20562;-61
2022/01/13 00:31:32;;;;;;;21.88;2.35;;;20.30;29.70;;;;;;5089913;28;20244;-60
2022/01/13 00:34:00;;;;;;;13.70;2.38;;;20.20;29.70;;;;;;5087235;28;20130;-61
2022/01/13 00:36:29;;;;;;;17.60;2.03;;;20.00;29.60;;;;;;5088815;28;20069;-60
2022/01/13 00:38:56;;;;;;;12.75;2.50;;;19.80;29.20;;;;;;5092215;28;20072;-58
2022/01/13 00:41:26;;;;;;;20.30;2.72;;;19.70;29.50;;;;;;5072865;28;20155;-58
2022/01/13 00:43:52;;;;;;;32.85;3.47;;;19.60;30.30;;;;;;5089184;28;20086;-62
2022/01/13 00:46:22;;;;;;;34.80;3.38;;;19.50;31.00;;;;;;5090910;28;20097;-59
2022/01/13 00:48:51;;;;;;;20.65;3.53;;;19.40;31.20;;;;;;5090416;28;20076;-60
2022/01/13 00:51:18;;;;;;;23.77;3.55;;;19.20;30.90;;;;;;5088860;28;20083;-58
2022/01/13 00:53:44;;;;;;;15.13;3.20;;;19.10;31.00;;;;;;5086941;28;20116;-61
2022/01/13 00:56:12;;;;;;;22.58;3.58;;;18.90;31.10;;;;;;5089208;28;20148;-61
2022/01/13 00:58:39;;;;;;;20.30;2.65;;;18.80;31.90;;;;;;5087959;28;20213;-59
2022/01/13 01:01:07;;;;;;;21.33;3.58;;;18.60;32.10;;;;;;5072041;28;20068;-62
2022/01/13 01:03:35;;;;;;;21.05;4.13;;;18.50;32.00;;;;;;5089213;28;20643;-59
2022/01/13 01:06:03;;;;;;;27.85;5.35;;;18.30;32.00;;;;;;5088153;28;20649;-61
2022/01/13 01:08:32;;;;;;;26.58;4.35;;;18.30;32.90;;;;;;5087544;28;20068;-59
2022/01/13 01:11:01;;;;;;;37.90;4.68;;;18.20;33.00;;;;;;5086383;28;20088;-60
2022/01/13 01:13:30;;;;;;;31.95;5.40;;;18.00;33.30;;;;;;5087952;28;20179;-59
2022/01/13 01:16:00;;;;;;;37.78;5.85;;;17.90;33.40;;;;;;5087536;28;20089;-59
2022/01/13 01:19:13;;;;;;;31.92;5.65;;;17.80;34.00;;;;;;5087242;28;20187;-58
2022/01/13 01:26:39;;;;;;;27.80;5.63;;;17.50;35.00;;;;;;5089523;28;20072;-58
2022/01/13 01:29:21;;;;;;;47.75;6.35;;;17.40;35.20;;;;;;5087945;28;20168;-61
2022/01/13 01:31:51;;;;;;;31.70;5.75;;;17.30;35.40;;;;;;5089422;28;20099;-59
2022/01/13 01:36:55;;;;;;;46.10;6.30;;;17.10;35.50;;;;;;5089156;28;20076;-61
2022/01/13 01:39:23;;;;;;;47.00;5.85;;;17.00;36.30;;;;;;5088359;28;20096;-60
2022/01/13 01:41:52;;;;;;;41.28;6.25;;;17.00;36.40;;;;;;5088003;28;20076;-61
2022/01/13 01:44:29;;;;;;;39.47;6.28;;;16.90;36.40;;;;;;5087877;28;20077;-63
2022/01/13 01:46:58;;;;;;;41.70;6.18;;;16.80;36.70;;;;;;5088083;28;20076;-60
2022/01/13 01:49:26;;;;;;;55.17;7.28;;;16.80;36.90;;;;;;5093034;28;20165;-64
2022/01/13 01:51:54;;;;;;;69.97;16.42;;;16.70;37.00;;;;;;5086998;28;20134;-62
2022/01/13 01:54:21;;;;;;;70.65;14.18;;;16.70;37.10;;;;;;5070990;28;20112;-60
2022/01/13 01:56:48;;;;;;;51.05;8.50;;;16.70;38.10;;;;;;5065073;28;20067;-63
2022/01/13 01:59:18;;;;;;;54.83;7.53;;;16.60;38.70;;;;;;5088604;28;20095;-62
2022/01/13 02:01:47;;;;;;;54.22;6.72;;;16.60;39.20;;;;;;5089688;28;20051;-58
2022/01/13 02:04:14;;;;;;;56.08;7.40;;;16.60;38.80;;;;;;5071426;28;20077;-61
2022/01/13 02:06:43;;;;;;;33.38;6.30;;;16.60;38.30;;;;;;5080317;28;20084;-59
2022/01/13 02:09:12;;;;;;;41.97;5.55;;;16.50;37.30;;;;;;5087544;28;20609;-59
2022/01/13 02:11:44;;;;;;;51.85;5.78;;;16.40;37.50;;;;;;5082023;28;20085;-62
2022/01/13 02:17:02;;;;;;;33.10;5.35;;;16.30;37.20;;;;;;5084122;28;20069;-61
2022/01/13 02:19:30;;;;;;;53.47;21.13;;;16.20;37.00;;;;;;5070405;28;20083;-60
2022/01/13 02:21:57;;;;;;;90.47;45.45;;;16.20;37.30;;;;;;5081522;28;20199;-58
2022/01/13 02:24:23;;;;;;;104.78;52.08;;;16.10;37.50;;;;;;5066576;28;20076;-57
2022/01/13 02:26:49;;;;;;;;;;;16.00;39.00;;;;;;5083257;28;20473;-58
2022/01/13 02:29:16;;;;;;;94.88;38.30;;;16.00;38.70;;;;;;5084736;28;19960;-61
2022/01/13 02:31:42;;;;;;;81.10;40.00;;;16.00;38.50;;;;;;5083519;28;20498;-61
2022/01/13 02:34:09;;;;;;;77.88;34.53;;;15.90;38.50;;;;;;5084699;28;20152;-61
2022/01/13 02:36:37;;;;;;;67.25;25.73;;;15.90;38.60;;;;;;5083138;28;20169;-61
2022/01/13 02:39:04;;;;;;;64.63;19.80;;;15.70;38.70;;;;;;5070643;28;20068;-58
2022/01/13 02:41:31;;;;;;;51.42;16.52;;;15.70;38.90;;;;;;5085442;28;20072;-56
2022/01/13 02:43:59;;;;;;;54.85;14.52;;;15.70;39.20;;;;;;5087344;28;20152;-59
2022/01/13 02:49:09;;;;;;;53.75;10.60;;;15.70;39.30;;;;;;5085163;28;20092;-62
2022/01/13 02:51:36;;;;;;;64.32;10.32;;;15.70;39.10;;;;;;5086578;28;20097;-58
2022/01/13 02:54:04;;;;;;;48.72;9.70;;;15.60;39.10;;;;;;5085950;28;20720;-55
2022/01/13 02:56:31;;;;;;;54.78;9.68;;;15.60;39.60;;;;;;5088748;28;20068;-59
2022/01/13 02:58:58;;;;;;;64.90;10.52;;;15.50;39.60;;;;;;5081105;28;20091;-57
2022/01/13 03:01:24;;;;;;;59.17;11.32;;;15.40;39.50;;;;;;5085479;28;20481;-59
2022/01/13 03:03:52;;;;;;;44.15;9.20;;;15.40;39.90;;;;;;5085014;28;20134;-60
2022/01/13 03:06:24;;;;;;;74.85;11.30;;;15.30;40.10;;;;;;5088043;28;20084;-60
2022/01/13 03:08:53;;;;;;;68.32;11.05;;;15.30;40.60;;;;;;5086554;28;20087;-60
2022/01/13 03:11:22;;;;;;;87.68;11.88;;;15.20;40.40;;;;;;5086362;28;20079;-60
2022/01/13 03:13:49;;;;;;;60.90;11.43;;;15.20;40.60;;;;;;5088691;28;20627;-59
2022/01/13 03:16:15;;;;;;;;;;;15.20;40.80;;;;;;5084069;28;20091;-61
2022/01/13 03:18:42;;;;;;;76.47;12.65;;;15.10;40.70;;;;;;5088175;28;19953;-58
2022/01/13 03:21:08;;;;;;;;;;;15.00;41.00;;;;;;5086981;28;20120;-60
2022/01/13 03:23:36;;;;;;;81.53;11.65;;;15.00;41.50;;;;;;5086435;28;20078;-60
2022/01/13 03:26:03;;;;;;;77.55;13.13;;;14.90;41.50;;;;;;5070225;28;20072;-62
2022/01/13 03:28:31;;;;;;;80.93;13.00;;;14.90;41.70;;;;;;5086184;28;20583;-58
2022/01/13 03:31:00;;;;;;;92.65;13.40;;;14.90;41.90;;;;;;5086726;28;20180;-60
2022/01/13 03:33:27;;;;;;;89.47;15.10;;;14.80;42.20;;;;;;5084787;28;20126;-59
2022/01/13 03:35:54;;;;;;;89.10;14.18;;;14.80;42.30;;;;;;5085752;28;20924;-60
2022/01/13 03:38:21;;;;;;;100.43;15.95;;;14.80;42.40;;;;;;5087880;28;20123;-59
2022/01/13 03:40:47;;;;;;;94.25;16.30;;;14.90;43.40;;;;;;5087430;28;20110;-59
2022/01/13 03:43:16;;;;;;;;;;;14.80;43.00;;;;;;5069007;28;20084;-62
2022/01/13 03:45:43;;;;;;;87.88;13.75;;;14.60;43.00;;;;;;5087022;28;19956;-60
2022/01/13 03:48:10;;;;;;;95.85;16.20;;;14.60;43.10;;;;;;5090595;28;20126;-60
2022/01/13 03:50:37;;;;;;;96.88;17.58;;;14.60;43.20;;;;;;5089331;28;20084;-60
2022/01/13 03:53:06;;;;;;;;;;;14.50;43.60;;;;;;5090253;28;20113;-63
2022/01/13 03:55:38;;;;;;;102.95;19.63;;;14.50;43.90;;;;;;5087554;28;19984;-62
2022/01/13 03:58:23;;;;;;;111.25;18.55;;;14.50;44.20;;;;;;5089132;28;20445;-63
2022/01/13 04:01:26;;;;;;;104.68;19.50;;;14.60;44.40;;;;;;5089559;28;20073;-61
2022/01/13 04:03:53;;;;;;;113.95;19.33;;;14.60;44.20;;;;;;5093123;28;20092;-60
2022/01/13 04:06:22;;;;;;;91.13;18.88;;;14.60;44.40;;;;;;5090101;28;20088;-60
2022/01/13 04:08:50;;;;;;;117.32;19.88;;;14.70;44.50;;;;;;5090823;28;20663;-60
2022/01/13 04:11:25;;;;;;;109.60;20.52;;;14.70;44.60;;;;;;5089249;28;20087;-60
2022/01/13 04:14:01;;;;;;;87.05;18.80;;;14.70;45.30;;;;;;5086440;28;20421;-61
2022/01/13 04:16:31;;;;;;;122.03;20.05;;;14.70;45.20;;;;;;5088296;28;20137;-63
2022/01/13 04:19:03;;;;;;;109.47;21.75;;;14.70;45.30;;;;;;5090017;28;20092;-61
2022/01/13 04:21:31;;;;;;;102.60;21.65;;;14.80;46.20;;;;;;5088866;28;20140;-61
2022/01/13 04:23:58;;;;;;;111.45;23.38;;;14.70;45.70;;;;;;5089355;28;20096;-63
2022/01/13 04:26:30;;;;;;;144.40;26.88;;;14.70;45.40;;;;;;5088824;28;20430;-61
2022/01/13 04:31:46;;;;;;;128.57;26.95;;;14.80;46.30;;;;;;5087027;28;20096;-59
2022/01/13 04:34:12;;;;;;;124.55;26.38;;;14.80;45.80;;;;;;5087898;28;20064;-63
2022/01/13 04:36:39;;;;;;;138.40;27.90;;;14.80;45.30;;;;;;5089125;28;20446;-60
2022/01/13 04:39:07;;;;;;;102.85;24.88;;;14.70;45.70;;;;;;5087811;28;20069;-60
2022/01/13 04:41:35;;;;;;;121.80;26.77;;;14.70;44.50;;;;;;5089429;28;20072;-58
2022/01/13 04:44:19;;;;;;;128.43;27.48;;;14.60;43.80;;;;;;5087473;28;20229;-61
2022/01/13 04:46:47;;;;;;;117.57;25.88;;;14.60;44.70;;;;;;5087602;28;20075;-61
2022/01/13 04:49:14;;;;;;;119.43;27.40;;;14.50;44.50;;;;;;5089487;28;20080;-60
2022/01/13 04:51:41;;;;;;;132.73;27.80;;;14.50;44.60;;;;;;5088932;28;20187;-61
2022/01/13 04:54:08;;;;;;;139.25;28.67;;;14.50;44.50;;;;;;5087769;28;20069;-60
2022/01/13 04:56:44;;;;;;;105.50;26.65;;;14.50;44.60;;;;;;5088173;28;20076;-59
2022/01/13 04:59:12;;;;;;;133.88;28.40;;;14.50;44.40;;;;;;5091307;28;20069;-60
2022/01/13 05:01:38;;;;;;;111.03;27.42;;;14.50;44.70;;;;;;5088190;28;20115;-63
2022/01/13 05:04:06;;;;;;;123.70;27.13;;;14.50;44.70;;;;;;5088440;28;20122;-62
2022/01/13 05:06:34;;;;;;;112.07;27.17;;;14.60;45.40;;;;;;5089392;28;20077;-62
2022/01/13 05:09:00;;;;;;;97.03;29.05;;;14.60;45.30;;;;;;5089809;28;20068;-60
2022/01/13 05:11:26;;;;;;;136.63;30.30;;;14.50;45.10;;;;;;5088973;28;20218;-59
2022/01/13 05:13:52;;;;;;;;;;;14.50;45.80;;;;;;5088091;28;20073;-61
2022/01/13 05:16:24;;;;;;;142.88;33.80;;;14.50;46.00;;;;;;5087948;28;19965;-61
2022/01/13 05:21:56;;;;;;;107.18;30.77;;;14.40;45.90;;;;;;5088704;28;20140;-61
2022/01/13 05:24:22;;;;;;;114.95;30.73;;;14.30;46.00;;;;;;5088300;28;20168;-58
2022/01/13 05:26:48;;;;;;;;;;;14.30;46.20;;;;;;5088568;28;20163;-62
2022/01/13 05:29:19;;;;;;;132.57;30.25;;;14.30;46.30;;;;;;5087277;28;20063;-58
2022/01/13 05:31:45;;;;;;;138.38;29.17;;;14.30;46.30;;;;;;5087933;28;20120;-59
2022/01/13 05:34:12;;;;;;;138.98;29.60;;;14.30;46.00;;;;;;5087131;28;20658;-60
2022/01/13 05:36:38;;;;;;;;;;;14.20;46.00;;;;;;5089233;28;20445;-62
2022/01/13 05:39:04;;;;;;;129.30;31.75;;;14.20;46.40;;;;;;5086174;28;19964;-63
2022/01/13 05:41:33;;;;;;;153.00;35.42;;;14.20;46.60;;;;;;5086638;28;20538;-61
2022/01/13 05:44:00;;;;;;;127.80;34.83;;;14.20;46.70;;;;;;5087666;28;20126;-60
2022/01/13 05:46:26;;;;;;;149.85;36.08;;;14.20;47.00;;;;;;5086867;28;20099;-61
2022/01/13 05:48:56;;;;;;;122.70;37.55;;;14.30;46.50;;;;;;5090327;28;20122;-61
2022/01/13 05:51:23;;;;;;;174.65;40.03;;;14.30;46.80;;;;;;5069221;28;20077;-60
2022/01/13 05:53:50;;;;;;;128.02;35.75;;;14.30;46.80;;;;;;5086924;28;20083;-61
2022/01/13 05:56:16;;;;;;;;;;;14.30;46.50;;;;;;5089334;28;20081;-62
2022/01/13 05:58:42;;;;;;;129.55;37.45;;;14.30;46.80;;;;;;5092613;28;19964;-60
2022/01/13 06:01:09;;;;;;;145.60;37.72;;;14.30;47.20;;;;;;5087637;28;20099;-63
2022/01/13 06:03:35;;;;;;;;;;;14.30;47.20;;;;;;5054516;28;20096;-63
2022/01/13 06:06:01;;;;;;;151.35;38.63;;;14.20;46.90;;;;;;5088175;28;20432;-63
2022/01/13 06:08:28;;;;;;;137.77;37.50;;;14.10;46.80;;;;;;5089479;28;20092;-61
2022/01/13 06:10:54;;;;;;;;;;;14.10;46.80;;;;;;5086968;28;20423;-62
2022/01/13 06:13:20;;;;;;;117.53;35.15;;;14.00;46.80;;;;;;5087110;28;20414;-61
2022/01/13 06:15:46;;;;;;;112.82;37.03;;;14.00;46.70;;;;;;5096439;28;20068;-57
2022/01/13 06:18:14;;;;;;;141.60;36.95;;;14.00;46.50;;;;;;5091956;28;20125;-63
2022/01/13 06:20:42;;;;;;;145.82;38.28;;;14.00;46.50;;;;;;5084519;28;20172;-60
2022/01/13 06:23:11;;;;;;;159.82;38.40;;;14.00;47.00;;;;;;5088061;28;20110;-60
2022/01/13 06:25:38;;;;;;;134.60;37.95;;;14.10;47.50;;;;;;5085425;28;20075;-61
2022/01/13 06:28:06;;;;;;;133.07;36.97;;;14.10;47.70;;;;;;5089317;28;20088;-62
2022/01/13 06:30:33;;;;;;;137.05;37.40;;;14.10;47.60;;;;;;5086745;28;20121;-63
2022/01/13 06:33:00;;;;;;;138.30;38.45;;;14.10;48.10;;;;;;5087291;28;20080;-60
2022/01/13 06:35:26;;;;;;;135.25;37.88;;;14.00;48.10;;;;;;5086611;28;20587;-59
2022/01/13 06:37:53;;;;;;;128.77;35.67;;;14.00;48.00;;;;;;5085462;28;20073;-61
2022/01/13 06:40:19;;;;;;;;;;;13.90;47.90;;;;;;5087653;28;20169;-61
2022/01/13 06:42:45;;;;;;;134.15;36.95;;;13.90;48.00;;;;;;5086323;28;19962;-60
2022/01/13 06:45:11;;;;;;;;;;;13.80;48.10;;;;;;5087845;28;20077;-62
2022/01/13 06:47:38;;;;;;;139.70;39.00;;;13.80;48.20;;;;;;5070736;28;20003;-60
2022/01/13 06:50:06;;;;;;;139.43;37.50;;;13.70;48.20;;;;;;5086787;28;20073;-60
2022/01/13 06:52:32;;;;;;;116.60;35.88;;;13.70;48.60;;;;;;5087404;28;20085;-58
2022/01/13 06:54:59;;;;;;;151.30;39.97;;;13.60;48.50;;;;;;5086386;28;20068;-59
2022/01/13 06:57:25;;;;;;;146.32;38.25;;;13.70;48.30;;;;;;5085045;28;20095;-63
2022/01/13 06:59:51;;;;;;;;;;;13.70;49.00;;;;;;5087608;28;20089;-60
2022/01/13 07:02:18;;;;;;;126.60;38.58;;;13.70;49.70;;;;;;5087800;28;20357;-60
2022/01/13 07:04:44;;;;;;;;;;;13.70;48.90;;;;;;5087929;28;20072;-59
2022/01/13 07:07:11;;;;;;;128.88;37.53;;;13.60;48.70;;;;;;5089085;28;20434;-61
2022/01/13 07:09:37;;;;;;;132.65;40.83;;;13.50;48.90;;;;;;5087076;28;20705;-60
2022/01/13 07:12:03;;;;;;;;;;;13.40;49.10;;;;;;5086570;28;20092;-59
2022/01/13 07:14:30;;;;;;;118.30;40.25;;;13.40;49.20;;;;;;5087456;28;19965;-60
2022/01/13 07:16:56;;;;;;;131.55;40.50;;;13.30;49.20;;;;;;5087732;28;20159;-61
2022/01/13 07:19:23;;;;;;;138.90;40.85;;;13.20;49.60;;;;;;5088222;28;20104;-57
2022/01/13 07:21:50;;;;;;;147.48;42.35;;;13.30;50.50;;;;;;5091183;28;20116;-61
2022/01/13 07:24:17;;;;;;;141.25;41.58;;;13.30;50.10;;;;;;5088346;28;20101;-65
2022/01/13 07:26:43;;;;;;;125.78;39.65;;;13.20;50.10;;;;;;5090023;28;20076;-62
2022/01/13 07:29:10;;;;;;;152.00;43.03;;;13.20;50.20;;;;;;5090761;28;20121;-63
2022/01/13 07:31:37;;;;;;;;;;;13.30;51.50;;;;;;5089424;28;20073;-60
2022/01/13 07:34:04;;;;;;;113.85;37.97;;;13.20;50.60;;;;;;5088050;28;20446;-57
2022/01/13 07:36:31;;;;;;;137.52;38.28;;;13.20;50.90;;;;;;5089346;28;20171;-60
2022/01/13 07:38:57;;;;;;;121.22;35.30;;;13.20;50.70;;;;;;5088665;28;20072;-60
2022/01/13 07:41:24;;;;;;;116.97;36.13;;;13.10;50.80;;;;;;5088070;28;20129;-61
2022/01/13 07:43:54;;;;;;;114.35;34.58;;;13.00;50.70;;;;;;5090473;28;20083;-59
2022/01/13 07:46:22;;;;;;;136.70;36.38;;;13.00;50.90;;;;;;5091465;28;20121;-62
2022/01/13 07:48:49;;;;;;;116.85;34.75;;;12.90;51.10;;;;;;5091226;28;20076;-60
2022/01/13 07:51:15;;;;;;;109.63;32.83;;;12.90;51.30;;;;;;5089578;28;20072;-58
2022/01/13 07:53:42;;;;;;;113.13;33.50;;;12.80;51.70;;;;;;5087638;28;20180;-62
2022/01/13 07:56:08;;;;;;;;;;;12.80;51.60;;;;;;5089230;28;20072;-63
2022/01/13 07:58:35;;;;;;;95.32;32.75;;;12.80;52.00;;;;;;5091337;28;19973;-61
2022/01/13 08:01:03;;;;;;;103.40;31.27;;;12.70;51.90;;;;;;5088948;28;20446;-61
2022/01/13 08:03:30;;;;;;;95.60;30.58;;;12.70;52.10;;;;;;5086997;28;20096;-57
2022/01/13 08:05:58;;;;;;;97.88;28.42;;;12.70;52.60;;;;;;5085540;28;20092;-61
2022/01/13 08:08:25;;;;;;;114.55;29.15;;;12.70;52.50;;;;;;5089766;28;20163;-59
2022/01/13 08:10:51;;;;;;;96.38;29.42;;;12.60;52.30;;;;;;5088159;28;20076;-59
2022/01/13 08:13:17;;;;;;;;;;;12.60;52.60;;;;;;5089476;28;20145;-58
2022/01/13 08:15:44;;;;;;;91.57;30.58;;;12.60;52.50;;;;;;5089755;28;19969;-60
2022/01/13 08:20:54;;;;;;;90.28;28.35;;;12.50;53.40;;;;;;5092302;28;19984;-60
2022/01/13 08:23:20;;;;;;;;;;;12.50;53.40;;;;;;5073324;28;20109;-60
2022/01/13 08:25:47;;;;;;;96.47;27.60;;;12.50;53.80;;;;;;5089207;28;20012;-59
2022/01/13 08:28:13;;;;;;;;;;;12.50;54.00;;;;;;5087818;28;20088;-60
2022/01/13 08:30:40;;;;;;;95.80;29.55;;;12.50;54.10;;;;;;5088078;28;19976;-58
2022/01/13 08:33:06;;;;;;;94.22;27.58;;;12.40;54.20;;;;;;5089406;28;20137;-61
2022/01/13 08:35:33;;;;;;;87.05;29.23;;;12.40;54.20;;;;;;5069457;28;20076;-62
2022/01/13 08:38:05;;;;;;;;;;;12.50;54.10;;;;;;5088669;28;20653;-60
2022/01/13 08:40:34;;;;;;;101.15;29.48;;;12.50;53.90;;;;;;5087987;28;19961;-63
2022/01/13 08:43:02;;;;;;;84.90;27.50;;;12.40;53.80;;;;;;5085684;28;20076;-59
2022/01/13 08:45:30;;;;;;;92.03;27.58;;;12.50;54.20;;;;;;5070527;28;20084;-60
2022/01/13 08:47:56;;;;;;;102.38;30.23;;;12.50;54.10;;;;;;5070749;28;20089;-59
2022/01/13 08:50:22;;;;;;;;;;;12.40;53.80;;;;;;5088506;28;20484;-62
2022/01/13 08:52:49;;;;;;;106.85;31.60;;;12.30;53.80;;;;;;5086331;28;20149;-61
2022/01/13 08:55:15;;;;;;;;;;;12.30;54.20;;;;;;5072085;28;20163;-64
2022/01/13 08:57:41;;;;;;;96.05;33.10;;;12.30;54.20;;;;;;5071894;28;19957;-61
2022/01/13 09:00:08;;;;;;;;;;;12.20;54.30;;;;;;5072138;28;20540;-60
2022/01/13 09:02:34;;;;;;;119.80;36.43;;;12.20;54.50;;;;;;5070095;28;19977;-62
2022/01/13 09:05:01;;;;;;;;;;;12.20;54.90;;;;;;5089019;28;20118;-60
2022/01/13 09:07:28;;;;;;;129.43;36.80;;;12.20;55.50;;;;;;5088876;28;19979;-60
2022/01/13 09:09:56;;;;;;;112.90;31.60;;;12.10;55.70;;;;;;5072813;28;20072;-61
2022/01/13 09:12:23;;;;;;;100.78;30.10;;;12.10;55.50;;;;;;5086964;28;20092;-64
2022/01/13 09:14:58;;;;;;;72.60;25.48;;;12.10;56.20;;;;;;5089763;28;20129;-59
2022/01/13 09:17:25;;;;;;;72.63;23.20;;;12.00;56.40;;;;;;5085833;28;20064;-62
2022/01/13 09:19:51;;;;;;;;;;;11.90;57.00;;;;;;5089918;28;20562;-63
2022/01/13 09:22:18;;;;;;;74.03;21.92;;;11.80;57.00;;;;;;5088604;28;20034;-60
2022/01/13 09:24:45;;;;;;;74.70;22.15;;;11.80;57.00;;;;;;5087770;28;20511;-61
2022/01/13 09:27:11;;;;;;;77.60;20.83;;;11.90;57.60;;;;;;5071009;28;20112;-59
2022/01/13 09:29:38;;;;;;;;;;;11.90;57.50;;;;;;5086680;28;20079;-59
2022/01/13 09:32:04;;;;;;;64.20;19.77;;;11.80;57.80;;;;;;5086391;28;19984;-60
2022/01/13 09:34:31;;;;;;;61.00;19.80;;;11.80;57.80;;;;;;5071578;28;20068;-60
2022/01/13 09:36:57;;;;;;;62.58;19.67;;;11.70;58.00;;;;;;5087192;28;20511;-60
2022/01/13 09:39:23;;;;;;;;;;;11.70;59.10;;;;;;5070831;28;20107;-59
2022/01/13 09:41:52;;;;;;;59.90;19.10;;;11.70;58.60;;;;;;5086351;28;19963;-62
2022/01/13 09:44:18;;;;;;;57.53;18.75;;;11.60;58.10;;;;;;5085724;28;20084;-61
2022/01/13 09:46:46;;;;;;;60.13;20.08;;;11.60;58.20;;;;;;5086297;28;20081;-60
2022/01/13 09:49:12;;;;;;;55.85;19.05;;;11.60;57.90;;;;;;5072470;28;20562;-59
2022/01/13 09:51:44;;;;;;;;;;;11.60;57.80;;;;;;5070939;28;20084;-59
2022/01/13 09:54:12;;;;;;;57.05;19.42;;;11.50;57.80;;;;;;5085535;28;19961;-58
2022/01/13 09:56:39;;;;;;;61.25;21.23;;;11.50;58.40;;;;;;5084654;28;20077;-63
2022/01/13 09:59:05;;;;;;;;;;;11.40;58.10;;;;;;5088959;28;20084;-62
2022/01/13 10:01:32;;;;;;;73.70;20.35;;;11.40;58.40;;;;;;5086754;28;19992;-59
2022/01/13 10:03:59;;;;;;;83.57;22.70;;;11.40;58.70;;;;;;5087517;28;20073;-63
2022/01/13 10:06:25;;;;;;;;;;;11.30;58.50;;;;;;5087256;28;20508;-60
2022/01/13 10:08:56;;;;;;;71.75;21.52;;;11.30;58.70;;;;;;5088421;28;19956;-59
2022/01/13 10:11:36;;;;;;;76.60;21.55;;;11.40;59.30;;;;;;5087714;28;20129;-61
2022/01/13 10:16:54;;;;;;;60.97;20.73;;;11.20;58.90;;;;;;5086694;28;20201;-55
2022/01/13 10:19:36;;;;;;;69.38;20.17;;;11.20;59.20;;;;;;5088844;28;20105;-59
2022/01/13 10:22:25;;;;;;;66.03;21.52;;;11.20;58.80;;;;;;5084637;28;20104;-59
2022/01/13 10:24:55;;;;;;;61.20;22.58;;;11.10;58.70;;;;;;5071519;28;20579;-60
2022/01/13 10:27:27;;;;;;;70.07;23.98;;;11.00;58.10;;;;;;5085220;28;20135;-59
2022/01/13 10:30:04;;;;;;;75.22;26.17;;;10.90;57.50;;;;;;5084153;28;20161;-59
2022/01/13 10:32:37;;;;;;;96.97;26.17;;;10.80;56.70;;;;;;5085395;28;20187;-62
2022/01/13 10:35:15;;;;;;;86.78;28.30;;;10.80;55.90;;;;;;5085096;28;20185;-58
2022/01/13 10:37:44;;;;;;;97.50;28.23;;;10.90;56.50;;;;;;5087125;28;20072;-60
2022/01/13 10:40:21;;;;;;;97.53;29.33;;;10.90;56.00;;;;;;5084005;28;20075;-58
2022/01/13 10:45:40;;;;;;;96.88;30.23;;;10.80;55.00;;;;;;5085533;28;20095;-60
2022/01/13 10:48:35;;;;;;;115.28;31.17;;;10.70;54.60;;;;;;5069268;28;20076;-59
2022/01/13 10:51:05;;;;;;;104.50;31.33;;;10.80;55.00;;;;;;5080886;28;20191;-60
2022/01/13 10:53:37;;;;;;;95.75;31.73;;;10.80;54.70;;;;;;5067099;28;20744;-63
2022/01/13 10:56:09;;;;;;;89.30;31.08;;;10.60;54.20;;;;;;5087633;28;20096;-61
2022/01/13 10:58:41;;;;;;;94.38;32.65;;;10.60;54.20;;;;;;5090404;28;20103;-61
2022/01/13 11:01:14;;;;;;;98.50;31.33;;;10.60;53.90;;;;;;5058012;28;20072;-63
2022/01/13 11:03:42;;;;;;;109.65;32.78;;;10.50;54.00;;;;;;5089448;28;20094;-60
2022/01/13 11:06:10;;;;;;;103.10;32.47;;;10.50;54.40;;;;;;5073160;28;20171;-61
2022/01/13 11:08:44;;;;;;;121.28;32.90;;;10.50;54.60;;;;;;5088159;28;20072;-61
2022/01/13 11:11:27;;;;;;;109.43;31.60;;;10.60;54.40;;;;;;5087919;28;20846;-61
2022/01/13 11:14:11;;;;;;;97.32;31.05;;;10.60;54.40;;;;;;5087308;28;20100;-59
2022/01/13 11:16:38;;;;;;;88.30;31.30;;;10.50;54.50;;;;;;5088955;28;20065;-61
2022/01/13 11:19:06;;;;;;;106.72;34.80;;;10.40;54.40;;;;;;5092421;28;20077;-63
2022/01/13 11:21:33;;;;;;;91.15;31.15;;;10.40;54.40;;;;;;5088375;28;20586;-59
2022/01/13 11:24:01;;;;;;;105.95;32.00;;;10.40;54.50;;;;;;5090442;28;20110;-58
2022/01/13 11:26:28;;;;;;;106.03;34.38;;;10.40;54.40;;;;;;5088601;28;20099;-59
2022/01/13 11:28:56;;;;;;;101.15;33.25;;;10.40;54.60;;;;;;5088409;28;20484;-62
2022/01/13 11:31:22;;;;;;;93.28;31.70;;;10.40;54.30;;;;;;5089834;28;20076;-60
2022/01/13 11:33:49;;;;;;;;;;;10.40;53.90;;;;;;5090235;28;20092;-63
2022/01/13 11:36:17;;;;;;;94.32;32.67;;;10.30;53.60;;;;;;5088647;28;19956;-62
2022/01/13 11:39:02;;;;;;;99.85;31.88;;;10.30;53.60;;;;;;5088222;28;20429;-62
2022/01/13 11:41:28;;;;;;;87.55;31.00;;;10.40;52.80;;;;;;5089487;28;20081;-59
2022/01/13 11:44:12;;;;;;;90.03;31.00;;;10.30;52.30;;;;;;5087313;28;20073;-62
2022/01/13 11:46:47;;;;;;;81.60;30.10;;;10.30;51.80;;;;;;5088443;28;20073;-59
2022/01/13 11:49:30;;;;;;;75.50;28.25;;;10.40;51.20;;;;;;5086468;28;20076;-61
2022/01/13 11:54:25;;;;;;;74.90;28.73;;;10.50;49.10;;;;;;5090096;28;20072;-59
2022/01/13 11:57:10;;;;;;;83.65;29.95;;;10.50;48.30;;;;;;5087244;28;20079;-60
2022/01/13 11:59:37;;;;;;;70.13;30.15;;;10.50;48.10;;;;;;5086959;28;20069;-61
2022/01/13 12:02:40;;;;;;;78.07;27.42;;;10.40;47.80;;;;;;5090267;28;20088;-59
2022/01/13 12:05:16;;;;;;;74.60;30.85;;;10.40;47.50;;;;;;5029217;28;20175;-60
2022/01/13 12:07:50;;;;;;;88.43;30.98;;;10.40;47.80;;;;;;5030288;28;20456;-62
2022/01/13 12:10:25;;;;;;;88.65;30.15;;;10.50;48.50;;;;;;5031962;28;20086;-60
2022/01/13 12:12:54;;;;;;;84.95;30.40;;;10.50;48.50;;;;;;5032173;28;20088;-60
2022/01/13 12:15:29;;;;;;;75.75;29.50;;;10.50;48.50;;;;;;5015017;28;20140;-59
2022/01/13 12:17:59;;;;;;;78.70;29.52;;;10.50;48.50;;;;;;5034507;28;20095;-61
2022/01/13 12:23:48;;;;;;;87.05;29.35;;;10.50;48.90;;;;;;5032138;28;20077;-62
2022/01/13 12:26:32;;;;;;;76.40;27.38;;;10.40;48.40;;;;;;5031095;28;20102;-62
2022/01/13 12:29:14;;;;;;;75.65;26.52;;;10.40;48.30;;;;;;5030112;28;20144;-61
2022/01/13 12:31:56;;;;;;;64.93;23.42;;;10.40;48.10;;;;;;5028037;28;20568;-61
2022/01/13 12:34:44;;;;;;;61.33;22.02;;;10.30;47.50;;;;;;5013317;28;20129;-61
2022/01/13 12:37:13;;;;;;;63.10;20.35;;;10.20;47.40;;;;;;5046949;28;20115;-59
2022/01/13 12:40:04;;;;;;;59.72;20.80;;;10.20;47.40;;;;;;5033562;28;20088;-61
2022/01/13 12:42:52;;;;;;;60.70;21.27;;;10.20;47.50;;;;;;5080227;28;20092;-60
2022/01/13 12:45:29;;;;;;;63.42;21.15;;;10.20;47.70;;;;;;5086289;28;20130;-59
2022/01/13 12:47:57;;;;;;;53.08;20.45;;;10.20;47.90;;;;;;5089424;28;20525;-61
2022/01/13 12:50:37;;;;;;;65.30;21.95;;;10.00;47.70;;;;;;5070086;28;20136;-61
2022/01/13 12:53:23;;;;;;;60.08;19.83;;;10.10;48.70;;;;;;5088553;28;20538;-62
2022/01/13 12:55:58;;;;;;;53.92;18.50;;;10.00;48.20;;;;;;5088233;28;20096;-62
2022/01/13 12:58:49;;;;;;;41.35;16.52;;;9.90;48.20;;;;;;5088349;28;20076;-59
2022/01/13 13:01:18;;;;;;;48.08;17.80;;;9.90;48.50;;;;;;5069310;28;20446;-61
2022/01/13 13:03:58;;;;;;;59.35;16.80;;;9.90;49.10;;;;;;5089083;28;20089;-61
2022/01/13 13:06:26;;;;;;;51.30;17.05;;;9.80;48.60;;;;;;5087495;28;20526;-59
2022/01/13 13:08:52;;;;;;;46.38;16.92;;;9.70;48.90;;;;;;5068753;28;20127;-63
2022/01/13 13:11:20;;;;;;;42.38;17.17;;;9.70;49.60;;;;;;5071850;28;20077;-60
2022/01/13 13:13:50;;;;;;;49.67;17.88;;;9.70;49.80;;;;;;5088002;28;20154;-61
2022/01/13 13:16:17;;;;;;;50.63;16.30;;;9.70;49.90;;;;;;5085868;28;20104;-64
2022/01/13 13:18:45;;;;;;;48.88;18.17;;;9.60;49.70;;;;;;5088535;28;20084;-60
2022/01/13 13:21:12;;;;;;;55.08;17.60;;;9.60;50.20;;;;;;5083106;28;20153;-63
2022/01/13 13:23:41;;;;;;;49.58;16.55;;;9.60;49.90;;;;;;5088535;28;20195;-62